Aérodrome :
LOGIN :

S'inscrire | Disclaimer

   EN    FR    IT 

 










Légende :    VFR   VFR Marginal   IFR   IFR Intensif   IFR Très Intensif
Visi : 
Plafond : 
>= 8 km
>= 3000ft
5 à 8 km
1000 à 3000 ft
1500m à 5 km
500 à 1000 ft
800 à 1500m
200 à 500 ft
< 800m
< 200 ft
Symboles :   Orages  Brouillard  Fortes neiges  Fortes précipitations  Vent > 20 kt
SIGMETs :   Divers  Orages  Givrage  Turbulence  Onde Orograph.  Cendres Volcan.







- Altitude de l'aérodrome : 1416 ft
- Code IATA : ZRH


LSZH - Zurich

DERNIER METAR :
  • 162350Z VRB03KT CAVOK 14/13 Q1019 NOSIG

METARs EXPIRÉS :
  • 162320Z 03003KT CAVOK 14/12 Q1019 NOSIG
  • 162250Z VRB01KT CAVOK 15/13 Q1019 NOSIG
  • 162220Z VRB02KT CAVOK 16/14 Q1019 NOSIG
  • 162150Z VRB02KT CAVOK 16/13 Q1020 NOSIG

TAF TAF LSZH
Valide du 17 à 00h jusqu'au 18 à 06h UTC


162325Z 1700/1806 VRB03KT CAVOK TX24/1714Z TN13/1705Z TN10/1805Z
BECMG 1701/1704 5000 MIFG
PROB40 1704/1707 1200 BCFG
PROB30 1704/1706 0600 PRFG
BECMG 1707/1709 CAVOK
BECMG 1709/1712 9999 SCT050
BECMG 1715/1717 04008KT
ATIS : +41 43 816 2295 (DEP) +41 43 816 2294 (ARR)
Pas de NOTAMs connus pour ce terrain.



MET'MAP, la Météo Aéronautique d'un coup d'oeil ! - Copyright ORBIFLY Décembre 2007 - Disclaimer

ORBIFLY MET'MAP TEAM :

Programmation & Développement : Alexandra Zaïnal
Conception & Développement : Baudouin d'Aumeries
Co-Programmation & Développement : Marc-Olivier Méhu
Soutien technique & logistique : Manuel Goepfert

Contact : metmap@orbifly.com




SOURCES & CREDITS :

   NOAA